Time,TemperatureF,DewpointF,PressureIn,WindDirection,WindDirectionDegrees,WindSpeedMPH,WindSpeedGustMPH,Humidity,HourlyPrecipIn,Conditions,Clouds,dailyrainin,SoftwareType,DateUTC
2013-09-30 00:01:00,53.1,48.9,29.83,SSW,195,4.0,19.0,86,0.04,,,1.02,meteohub,2013-09-30 07:01:00,
2013-09-30 00:06:00,52.9,48.6,29.84,SSW,205,6.0,16.0,85,0.03,,,0.00,meteohub,2013-09-30 07:06:00,
2013-09-30 00:11:00,52.9,48.7,29.85,SW,219,6.0,11.0,86,0.04,,,0.01,meteohub,2013-09-30 07:11:00,
2013-09-30 00:16:00,52.7,48.6,29.85,WSW,257,2.0,10.0,86,0.03,,,0.01,meteohub,2013-09-30 07:16:00,
2013-09-30 00:21:00,52.5,48.4,29.85,SSW,211,3.0,10.0,86,0.03,,,0.01,meteohub,2013-09-30 07:21:00,
2013-09-30 00:26:00,52.3,48.6,29.86,SSW,210,9.0,11.0,87,0.03,,,0.01,meteohub,2013-09-30 07:26:00,
2013-09-30 00:31:00,52.2,48.4,29.86,SW,226,3.0,11.0,87,0.03,,,0.01,meteohub,2013-09-30 07:31:00,
2013-09-30 00:36:00,52.2,48.0,29.87,SW,225,5.0,10.0,86,0.02,,,0.01,meteohub,2013-09-30 07:36:00,
2013-09-30 00:42:00,52.0,47.8,29.87,WSW,255,3.0,14.0,86,0.01,,,0.01,meteohub,2013-09-30 07:42:00,
2013-09-30 00:47:00,52.0,47.8,29.87,West,278,4.0,14.0,86,0.01,,,0.01,meteohub,2013-09-30 07:47:00,
2013-09-30 00:52:00,51.8,47.7,29.88,WNW,283,3.0,14.0,86,0.01,,,0.01,meteohub,2013-09-30 07:52:00,
2013-09-30 00:57:00,51.4,47.7,29.88,SE,138,2.0,10.0,87,0.01,,,0.01,meteohub,2013-09-30 07:57:00,
2013-09-30 01:02:00,51.4,47.5,29.88,SW,234,6.0,9.0,86,0.01,,,0.01,meteohub,2013-09-30 08:02:00,
2013-09-30 01:07:00,51.4,47.1,29.88,SSW,209,4.0,13.0,85,0.01,,,0.01,meteohub,2013-09-30 08:07:00,
2013-09-30 01:12:00,51.6,46.0,29.88,WSW,249,4.0,14.0,81,0.00,,,0.01,meteohub,2013-09-30 08:12:00,
2013-09-30 01:17:00,52.0,45.3,29.89,SW,218,6.0,14.0,78,0.00,,,0.01,meteohub,2013-09-30 08:17:00,
2013-09-30 01:22:00,51.8,45.5,29.89,SW,214,2.0,19.0,79,0.00,,,0.01,meteohub,2013-09-30 08:22:00,
2013-09-30 01:27:00,51.6,45.3,29.89,SW,222,0.0,19.0,79,0.00,,,0.01,meteohub,2013-09-30 08:27:00,
2013-09-30 01:32:00,51.6,44.6,29.90,WSW,256,2.0,12.0,77,0.00,,,0.01,meteohub,2013-09-30 08:32:00,
2013-09-30 01:37:00,51.8,44.8,29.90,SW,226,6.0,16.0,77,0.00,,,0.01,meteohub,2013-09-30 08:37:00,
2013-09-30 01:42:00,52.2,44.8,29.90,SW,230,4.0,16.0,76,0.00,,,0.01,meteohub,2013-09-30 08:42:00,
2013-09-30 01:47:00,52.2,45.1,29.91,SW,217,8.0,13.0,77,0.00,,,0.01,meteohub,2013-09-30 08:47:00,
2013-09-30 01:52:00,52.2,45.5,29.90,WSW,239,6.0,13.0,78,0.00,,,0.01,meteohub,2013-09-30 08:52:00,
2013-09-30 01:57:00,52.0,45.0,29.91,SSW,211,3.0,12.0,77,0.00,,,0.01,meteohub,2013-09-30 08:57:00,
2013-09-30 02:02:00,52.2,44.8,29.91,SW,222,4.0,12.0,76,0.00,,,0.01,meteohub,2013-09-30 09:02:00,
2013-09-30 02:07:00,52.3,45.0,29.91,South,170,2.0,12.0,76,0.00,,,0.01,meteohub,2013-09-30 09:07:00,
2013-09-30 02:12:00,52.0,45.0,29.92,SSW,206,1.0,12.0,77,0.00,,,0.01,meteohub,2013-09-30 09:12:00,
2013-09-30 02:17:00,51.4,44.4,29.92,SW,233,3.0,12.0,77,0.00,,,0.01,meteohub,2013-09-30 09:17:00,
2013-09-30 02:22:00,51.1,44.1,29.92,South,179,5.0,5.0,77,0.00,,,0.01,meteohub,2013-09-30 09:22:00,
2013-09-30 02:27:00,50.9,43.9,29.92,ESE,114,2.0,6.0,77,0.00,,,0.01,meteohub,2013-09-30 09:27:00,
2013-09-30 02:32:00,52.0,43.5,29.93,SSW,206,5.0,20.0,73,0.00,,,0.01,meteohub,2013-09-30 09:32:00,
2013-09-30 02:37:00,52.3,43.9,29.93,SSW,209,1.0,22.0,73,0.00,,,0.01,meteohub,2013-09-30 09:37:00,
2013-09-30 02:42:00,52.5,44.1,29.93,SW,230,4.0,22.0,73,0.00,,,0.01,meteohub,2013-09-30 09:42:00,
2013-09-30 02:47:00,52.3,43.9,29.93,SE,134,1.0,11.0,73,0.00,,,0.01,meteohub,2013-09-30 09:47:00,
2013-09-30 02:52:00,52.0,43.9,29.93,SW,227,0.0,11.0,74,0.00,,,0.01,meteohub,2013-09-30 09:52:00,
2013-09-30 02:57:00,51.4,43.5,29.93,ESE,110,2.0,7.0,74,0.00,,,0.01,meteohub,2013-09-30 09:57:00,
2013-09-30 03:02:00,51.1,43.7,29.93,WSW,242,4.0,5.0,76,0.00,,,0.01,meteohub,2013-09-30 10:02:00,
2013-09-30 03:07:00,51.1,43.7,29.93,WNW,300,2.0,9.0,76,0.00,,,0.01,meteohub,2013-09-30 10:07:00,
2013-09-30 03:12:00,51.4,43.7,29.93,WSW,242,3.0,9.0,75,0.00,,,0.01,meteohub,2013-09-30 10:12:00,
2013-09-30 03:17:00,51.6,43.5,29.93,WSW,254,3.0,9.0,74,0.00,,,0.01,meteohub,2013-09-30 10:17:00,
2013-09-30 03:22:00,52.0,43.5,29.93,SW,222,3.0,9.0,73,0.00,,,0.01,meteohub,2013-09-30 10:22:00,
2013-09-30 03:27:00,52.0,43.5,29.93,WSW,242,3.0,9.0,73,0.00,,,0.01,meteohub,2013-09-30 10:27:00,
2013-09-30 03:32:00,52.2,43.7,29.93,West,274,2.0,9.0,73,0.00,,,0.01,meteohub,2013-09-30 10:32:00,
2013-09-30 03:37:00,52.2,43.7,29.93,South,187,6.0,7.0,73,0.00,,,0.01,meteohub,2013-09-30 10:37:00,
2013-09-30 03:42:00,52.5,44.1,29.93,SSW,205,4.0,10.0,73,0.00,,,0.01,meteohub,2013-09-30 10:42:00,
2013-09-30 03:47:00,52.3,44.6,29.93,SW,214,3.0,11.0,75,0.00,,,0.01,meteohub,2013-09-30 10:47:00,
2013-09-30 03:52:00,52.2,44.4,29.94,WSW,250,5.0,11.0,75,0.00,,,0.01,meteohub,2013-09-30 10:52:00,
2013-09-30 03:57:00,52.2,44.4,29.93,SSE,157,2.0,11.0,75,0.00,,,0.01,meteohub,2013-09-30 10:57:00,
2013-09-30 04:02:00,51.6,44.6,29.93,SE,140,3.0,11.0,77,0.00,,,0.01,meteohub,2013-09-30 11:02:00,
2013-09-30 04:07:00,51.3,45.0,29.94,SE,146,2.0,11.0,79,0.00,,,0.01,meteohub,2013-09-30 11:07:00,
2013-09-30 04:12:00,50.7,44.8,29.94,SSE,157,4.0,7.0,80,0.00,,,0.01,meteohub,2013-09-30 11:12:00,
2013-09-30 04:17:00,50.5,45.0,29.94,WSW,248,1.0,6.0,81,0.00,,,0.01,meteohub,2013-09-30 11:17:00,
2013-09-30 04:22:00,50.4,45.1,29.94,SSE,153,3.0,6.0,82,0.00,,,0.01,meteohub,2013-09-30 11:22:00,
2013-09-30 04:27:00,50.2,45.1,29.94,SSE,155,3.0,6.0,83,0.00,,,0.01,meteohub,2013-09-30 11:27:00,
2013-09-30 04:32:00,49.8,45.1,29.94,SE,134,4.0,5.0,84,0.00,,,0.01,meteohub,2013-09-30 11:32:00,
2013-09-30 04:37:00,49.6,45.3,29.94,South,171,2.0,7.0,85,0.00,,,0.01,meteohub,2013-09-30 11:37:00,
2013-09-30 04:42:00,49.6,45.3,29.94,East,86,2.0,7.0,85,0.00,,,0.01,meteohub,2013-09-30 11:42:00,
2013-09-30 04:47:00,50.4,45.3,29.95,SE,142,1.0,10.0,83,0.01,,,0.02,meteohub,2013-09-30 11:47:00,
2013-09-30 04:52:00,50.5,45.5,29.94,SW,236,1.0,14.0,83,0.01,,,0.02,meteohub,2013-09-30 11:52:00,
2013-09-30 04:57:00,50.4,45.7,29.95,SW,228,1.0,14.0,84,0.02,,,0.03,meteohub,2013-09-30 11:57:00,
2013-09-30 05:02:00,50.2,45.5,29.95,SSE,164,1.0,5.0,84,0.02,,,0.03,meteohub,2013-09-30 12:02:00,
2013-09-30 05:07:00,49.8,45.5,29.95,SSW,198,0.0,4.0,85,0.02,,,0.03,meteohub,2013-09-30 12:07:00,
2013-09-30 05:12:00,49.8,45.5,29.95,SW,227,0.0,4.0,85,0.02,,,0.03,meteohub,2013-09-30 12:12:00,
2013-09-30 05:17:00,49.8,45.5,29.95,WSW,253,1.0,4.0,85,0.02,,,0.03,meteohub,2013-09-30 12:17:00,
2013-09-30 05:22:00,50.0,45.7,29.95,SW,221,8.0,8.0,85,0.02,,,0.03,meteohub,2013-09-30 12:22:00,
2013-09-30 05:27:00,50.9,45.7,29.95,SSW,192,3.0,9.0,82,0.02,,,0.03,meteohub,2013-09-30 12:27:00,
2013-09-30 05:32:00,51.3,46.0,29.95,ESE,115,5.0,9.0,82,0.02,,,0.03,meteohub,2013-09-30 12:32:00,
2013-09-30 05:37:00,51.3,46.0,29.95,SSE,167,1.0,9.0,82,0.02,,,0.03,meteohub,2013-09-30 12:37:00,
2013-09-30 05:42:00,51.3,46.0,29.95,South,191,1.0,7.0,82,0.02,,,0.03,meteohub,2013-09-30 12:42:00,
2013-09-30 05:47:00,51.3,46.2,29.95,SW,221,0.0,7.0,83,0.01,,,0.03,meteohub,2013-09-30 12:47:00,
2013-09-30 05:52:00,51.1,46.0,29.96,SE,146,0.0,6.0,83,0.00,,,0.03,meteohub,2013-09-30 12:52:00,
2013-09-30 05:57:00,50.9,46.2,29.96,SW,229,2.0,3.0,84,0.00,,,0.03,meteohub,2013-09-30 12:57:00,
2013-09-30 06:02:00,50.7,46.0,29.96,SSE,162,2.0,4.0,84,0.00,,,0.03,meteohub,2013-09-30 13:02:00,
2013-09-30 06:07:00,50.5,46.2,29.96,West,262,1.0,4.0,85,0.00,,,0.03,meteohub,2013-09-30 13:07:00,
2013-09-30 06:12:00,50.4,46.0,29.96,SSW,209,1.0,4.0,85,0.00,,,0.03,meteohub,2013-09-30 13:12:00,
2013-09-30 06:17:00,50.4,46.0,29.97,SSE,159,3.0,3.0,85,0.00,,,0.03,meteohub,2013-09-30 13:17:00,
2013-09-30 06:22:00,50.2,46.2,29.97,SSE,151,5.0,5.0,86,0.00,,,0.03,meteohub,2013-09-30 13:22:00,
2013-09-30 06:27:00,50.4,46.4,29.97,SSW,199,3.0,9.0,86,0.01,,,0.04,meteohub,2013-09-30 13:27:00,
2013-09-30 06:32:00,50.4,46.4,29.97,South,187,1.0,10.0,86,0.01,,,0.04,meteohub,2013-09-30 13:32:00,
2013-09-30 06:37:00,50.4,46.6,29.98,SW,234,3.0,10.0,87,0.01,,,0.04,meteohub,2013-09-30 13:37:00,
2013-09-30 06:42:00,50.2,46.4,29.98,ESE,121,2.0,10.0,87,0.01,,,0.04,meteohub,2013-09-30 13:42:00,
2013-09-30 06:47:00,50.0,46.2,29.98,SSE,166,5.0,7.0,87,0.01,,,0.04,meteohub,2013-09-30 13:47:00,
2013-09-30 06:52:00,50.0,46.2,29.98,SE,139,3.0,10.0,87,0.01,,,0.04,meteohub,2013-09-30 13:52:00,
2013-09-30 06:57:00,50.2,46.4,29.98,ESE,116,5.0,10.0,87,0.01,,,0.04,meteohub,2013-09-30 13:57:00,
2013-09-30 07:02:00,50.2,46.2,29.99,SSE,153,3.0,10.0,86,0.01,,,0.04,meteohub,2013-09-30 14:02:00,
2013-09-30 07:07:00,50.4,46.4,29.99,SSE,168,3.0,10.0,86,0.01,,,0.04,meteohub,2013-09-30 14:07:00,
2013-09-30 07:13:00,50.4,46.6,30.00,SSW,192,2.0,10.0,87,0.01,,,0.04,meteohub,2013-09-30 14:13:00,
2013-09-30 07:18:00,50.5,46.6,30.01,West,259,2.0,10.0,86,0.01,,,0.04,meteohub,2013-09-30 14:18:00,
2013-09-30 07:23:00,51.1,46.4,30.01,SSW,211,4.0,11.0,84,0.04,,,0.07,meteohub,2013-09-30 14:23:00,
2013-09-30 07:28:00,51.3,46.9,30.02,SW,228,4.0,12.0,85,0.05,,,0.09,meteohub,2013-09-30 14:28:00,
2013-09-30 07:33:00,50.9,46.9,30.02,South,175,2.0,14.0,86,0.06,,,0.10,meteohub,2013-09-30 14:33:00,
2013-09-30 07:38:00,50.7,46.8,30.02,SE,126,1.0,14.0,86,0.07,,,0.11,meteohub,2013-09-30 14:38:00,
2013-09-30 07:43:00,50.5,46.8,30.01,SE,130,0.0,6.0,87,0.08,,,0.12,meteohub,2013-09-30 14:43:00,
2013-09-30 07:49:00,50.2,46.8,30.01,SE,132,2.0,6.0,88,0.08,,,0.12,meteohub,2013-09-30 14:49:00,
2013-09-30 07:54:00,50.0,46.6,30.02,SE,134,0.0,6.0,88,0.08,,,0.12,meteohub,2013-09-30 14:54:00,
2013-09-30 07:59:00,50.2,46.8,30.02,WSW,248,0.0,3.0,88,0.08,,,0.12,meteohub,2013-09-30 14:59:00,
2013-09-30 08:04:00,50.5,47.1,30.02,West,276,0.0,3.0,88,0.08,,,0.12,meteohub,2013-09-30 15:04:00,
2013-09-30 08:09:00,50.7,47.3,30.02,SSW,213,0.0,3.0,88,0.08,,,0.12,meteohub,2013-09-30 15:09:00,
2013-09-30 08:14:00,50.7,47.3,30.02,SSE,148,2.0,2.0,88,0.07,,,0.12,meteohub,2013-09-30 15:14:00,
2013-09-30 08:19:00,50.7,47.3,30.03,SSW,209,1.0,2.0,88,0.06,,,0.12,meteohub,2013-09-30 15:19:00,
2013-09-30 08:24:00,51.1,47.3,30.03,WSW,252,1.0,2.0,87,0.04,,,0.12,meteohub,2013-09-30 15:24:00,
2013-09-30 08:29:00,51.1,47.3,30.04,SSW,206,1.0,7.0,87,0.03,,,0.12,meteohub,2013-09-30 15:29:00,
2013-09-30 08:34:00,50.7,46.9,30.04,SW,222,0.0,7.0,87,0.03,,,0.13,meteohub,2013-09-30 15:34:00,
2013-09-30 08:39:00,50.7,47.3,30.04,SW,233,0.0,5.0,88,0.02,,,0.13,meteohub,2013-09-30 15:39:00,
2013-09-30 08:44:00,50.7,47.3,30.04,SE,145,0.0,3.0,88,0.02,,,0.14,meteohub,2013-09-30 15:44:00,
2013-09-30 08:49:00,50.7,47.3,30.05,SE,141,1.0,2.0,88,0.02,,,0.14,meteohub,2013-09-30 15:49:00,
2013-09-30 08:54:00,50.7,47.3,30.06,SSE,159,0.0,2.0,88,0.02,,,0.14,meteohub,2013-09-30 15:54:00,
2013-09-30 09:00:00,50.9,47.5,30.06,West,271,1.0,3.0,88,0.02,,,0.14,meteohub,2013-09-30 16:00:00,
2013-09-30 09:05:00,51.1,47.7,30.06,West,277,0.0,4.0,88,0.03,,,0.14,meteohub,2013-09-30 16:05:00,
2013-09-30 09:10:00,51.1,47.7,30.06,NNE,14,0.0,4.0,88,0.03,,,0.15,meteohub,2013-09-30 16:10:00,
2013-09-30 09:15:00,50.9,47.5,30.06,NNW,337,2.0,4.0,88,0.04,,,0.17,meteohub,2013-09-30 16:15:00,
2013-09-30 09:20:00,50.7,46.9,30.07,NNE,17,0.0,3.0,87,0.05,,,0.18,meteohub,2013-09-30 16:20:00,
2013-09-30 09:25:00,50.7,46.8,30.07,ESE,111,1.0,3.0,86,0.06,,,0.18,meteohub,2013-09-30 16:25:00,
2013-09-30 09:30:00,50.7,46.8,30.08,WNW,299,1.0,3.0,86,0.06,,,0.19,meteohub,2013-09-30 16:30:00,
2013-09-30 09:35:00,50.9,46.6,30.08,NNE,25,1.0,2.0,85,0.06,,,0.19,meteohub,2013-09-30 16:35:00,
2013-09-30 09:40:00,50.9,46.6,30.09,SSW,198,0.0,2.0,85,0.06,,,0.19,meteohub,2013-09-30 16:40:00,
2013-09-30 09:45:00,50.7,46.8,30.09,NW,314,1.0,2.0,86,0.06,,,0.20,meteohub,2013-09-30 16:45:00,
2013-09-30 09:50:00,50.7,46.8,30.09,NE,35,2.0,4.0,86,0.06,,,0.20,meteohub,2013-09-30 16:50:00,
2013-09-30 09:55:00,50.7,46.8,30.10,NE,51,2.0,4.0,86,0.06,,,0.20,meteohub,2013-09-30 16:55:00,
2013-09-30 10:00:00,50.5,46.6,30.10,ESE,102,1.0,4.0,86,0.05,,,0.20,meteohub,2013-09-30 17:00:00,
2013-09-30 10:06:00,50.5,46.6,30.09,East,84,2.0,4.0,86,0.04,,,0.20,meteohub,2013-09-30 17:06:00,
2013-09-30 10:11:00,50.5,46.2,30.10,ESE,102,0.0,3.0,85,0.05,,,0.21,meteohub,2013-09-30 17:11:00,
2013-09-30 10:16:00,50.7,46.0,30.10,WSW,248,1.0,3.0,84,0.04,,,0.21,meteohub,2013-09-30 17:16:00,
2013-09-30 10:21:00,50.9,46.2,30.10,WSW,242,1.0,3.0,84,0.03,,,0.21,meteohub,2013-09-30 17:21:00,
2013-09-30 10:26:00,51.3,46.9,30.11,ESE,117,1.0,3.0,85,0.03,,,0.21,meteohub,2013-09-30 17:26:00,
2013-09-30 10:31:00,51.6,47.3,30.10,ESE,117,0.0,3.0,85,0.03,,,0.22,meteohub,2013-09-30 17:31:00,
2013-09-30 10:36:00,52.0,47.8,30.10,SW,217,0.0,3.0,86,0.03,,,0.22,meteohub,2013-09-30 17:36:00,
2013-09-30 10:41:00,52.2,48.0,30.10,SSW,199,1.0,2.0,86,0.02,,,0.22,meteohub,2013-09-30 17:41:00,
2013-09-30 10:46:00,52.3,48.9,30.10,West,272,2.0,3.0,88,0.02,,,0.22,meteohub,2013-09-30 17:46:00,
2013-09-30 10:51:00,52.5,49.1,30.11,SE,146,0.0,3.0,88,0.02,,,0.22,meteohub,2013-09-30 17:51:00,
2013-09-30 10:56:00,52.9,48.7,30.10,SSW,208,1.0,5.0,86,0.02,,,0.22,meteohub,2013-09-30 17:56:00,
2013-09-30 11:01:00,52.9,49.1,30.11,South,182,1.0,5.0,87,0.02,,,0.22,meteohub,2013-09-30 18:01:00,
2013-09-30 11:07:00,53.2,49.8,30.11,SW,217,1.0,5.0,88,0.01,,,0.22,meteohub,2013-09-30 18:07:00,
2013-09-30 11:12:00,53.4,49.6,30.12,SE,130,1.0,4.0,87,0.01,,,0.22,meteohub,2013-09-30 18:12:00,
2013-09-30 11:17:00,53.4,50.0,30.12,East,95,2.0,3.0,88,0.01,,,0.22,meteohub,2013-09-30 18:17:00,
2013-09-30 11:22:00,53.4,50.0,30.11,SE,134,2.0,3.0,88,0.01,,,0.22,meteohub,2013-09-30 18:22:00,
2013-09-30 11:27:00,53.4,49.6,30.12,SSE,147,4.0,5.0,87,0.01,,,0.22,meteohub,2013-09-30 18:27:00,
2013-09-30 11:32:00,53.8,50.4,30.12,SSE,151,3.0,5.0,88,0.00,,,0.22,meteohub,2013-09-30 18:32:00,
2013-09-30 11:39:00,53.4,49.6,30.12,SSW,199,2.0,5.0,87,0.00,,,0.22,meteohub,2013-09-30 18:39:00,
2013-09-30 11:44:00,53.1,49.3,30.12,SW,225,0.0,5.0,87,0.01,,,0.23,meteohub,2013-09-30 18:44:00,
2013-09-30 11:49:00,52.9,49.5,30.12,SSE,151,1.0,8.0,88,0.02,,,0.24,meteohub,2013-09-30 18:49:00,
2013-09-30 11:54:00,52.5,49.1,30.12,SE,138,0.0,8.0,88,0.03,,,0.25,meteohub,2013-09-30 18:54:00,
2013-09-30 11:59:00,52.5,49.1,30.12,SSW,199,0.0,8.0,88,0.04,,,0.26,meteohub,2013-09-30 18:59:00,
2013-09-30 12:04:00,52.5,49.1,30.12,SSW,205,1.0,4.0,88,0.05,,,0.27,meteohub,2013-09-30 19:04:00,
2013-09-30 12:09:00,52.5,49.1,30.13,SE,128,1.0,2.0,88,0.06,,,0.28,meteohub,2013-09-30 19:09:00,
2013-09-30 12:14:00,52.9,49.5,30.13,ESE,122,1.0,3.0,88,0.06,,,0.28,meteohub,2013-09-30 19:14:00,
2013-09-30 12:20:00,53.1,49.3,30.13,East,91,0.0,3.0,87,0.06,,,0.28,meteohub,2013-09-30 19:20:00,
2013-09-30 12:25:00,53.2,49.8,30.14,WNW,300,1.0,3.0,88,0.07,,,0.29,meteohub,2013-09-30 19:25:00,
2013-09-30 12:30:00,53.2,49.8,30.14,NW,309,0.0,2.0,88,0.07,,,0.29,meteohub,2013-09-30 19:30:00,
2013-09-30 12:35:00,53.4,50.0,30.14,NW,309,1.0,3.0,88,0.08,,,0.30,meteohub,2013-09-30 19:35:00,
2013-09-30 12:40:00,53.4,50.0,30.14,WSW,244,5.0,5.0,88,0.07,,,0.30,meteohub,2013-09-30 19:40:00,
2013-09-30 12:45:00,53.8,50.0,30.14,WNW,285,1.0,3.0,87,0.07,,,0.30,meteohub,2013-09-30 19:45:00,
2013-09-30 12:50:00,53.8,50.0,30.15,NW,309,1.0,5.0,87,0.06,,,0.30,meteohub,2013-09-30 19:50:00,
2013-09-30 12:55:00,53.6,50.2,30.15,NW,314,2.0,6.0,88,0.05,,,0.30,meteohub,2013-09-30 19:55:00,
2013-09-30 13:00:00,53.4,50.0,30.16,NW,304,1.0,6.0,88,0.03,,,0.31,meteohub,2013-09-30 20:00:00,
2013-09-30 13:05:00,53.2,49.8,30.16,West,276,2.0,7.0,88,0.03,,,0.31,meteohub,2013-09-30 20:05:00,
2013-09-30 13:10:00,53.1,49.6,30.16,West,276,3.0,7.0,88,0.04,,,0.32,meteohub,2013-09-30 20:10:00,
2013-09-30 13:15:00,53.1,49.6,30.17,WSW,252,3.0,7.0,88,0.03,,,0.32,meteohub,2013-09-30 20:15:00,
2013-09-30 13:20:00,52.9,49.5,30.17,WNW,283,5.0,11.0,88,0.04,,,0.33,meteohub,2013-09-30 20:20:00,
2013-09-30 13:26:00,52.7,49.3,30.17,East,94,2.0,11.0,88,0.05,,,0.34,meteohub,2013-09-30 20:26:00,
2013-09-30 13:31:00,52.7,49.3,30.17,West,264,8.0,11.0,88,0.05,,,0.35,meteohub,2013-09-30 20:31:00,
2013-09-30 13:37:00,52.9,49.1,30.17,SW,222,11.0,13.0,87,0.05,,,0.35,meteohub,2013-09-30 20:37:00,
2013-09-30 13:42:00,52.9,48.7,30.17,NW,317,7.0,13.0,86,0.05,,,0.35,meteohub,2013-09-30 20:42:00,
2013-09-30 13:47:00,52.3,47.3,30.17,SW,222,13.0,16.0,83,0.06,,,0.36,meteohub,2013-09-30 20:47:00,
2013-09-30 13:52:00,51.6,47.3,30.18,SW,223,8.0,21.0,85,0.06,,,0.36,meteohub,2013-09-30 20:52:00,
2013-09-30 14:03:00,50.9,47.5,30.17,SSW,211,6.0,21.0,88,0.08,,,0.39,meteohub,2013-09-30 21:03:00,
2013-09-30 14:08:00,51.1,47.7,30.17,SW,230,5.0,18.0,88,0.08,,,0.39,meteohub,2013-09-30 21:08:00,
2013-09-30 14:13:00,51.4,47.7,30.17,West,269,10.0,14.0,87,0.07,,,0.39,meteohub,2013-09-30 21:13:00,
2013-09-30 14:18:00,51.8,48.0,30.17,SW,226,1.0,14.0,87,0.06,,,0.39,meteohub,2013-09-30 21:18:00,
2013-09-30 14:23:00,52.2,48.4,30.17,SSW,207,4.0,13.0,87,0.06,,,0.39,meteohub,2013-09-30 21:23:00,
2013-09-30 14:28:00,52.9,48.7,30.17,SW,217,5.0,13.0,86,0.05,,,0.39,meteohub,2013-09-30 21:28:00,
2013-09-30 14:33:00,53.8,49.1,30.17,WSW,245,2.0,13.0,84,0.04,,,0.39,meteohub,2013-09-30 21:33:00,
2013-09-30 14:39:00,54.5,49.8,30.17,SE,144,3.0,12.0,84,0.04,,,0.39,meteohub,2013-09-30 21:39:00,
2013-09-30 14:44:00,55.2,50.5,30.17,SSE,161,1.0,12.0,84,0.04,,,0.39,meteohub,2013-09-30 21:44:00,
2013-09-30 14:49:00,55.8,49.6,30.17,South,175,0.0,8.0,80,0.03,,,0.39,meteohub,2013-09-30 21:49:00,
2013-09-30 14:54:00,55.9,50.9,30.16,SE,128,1.0,4.0,83,0.03,,,0.39,meteohub,2013-09-30 21:54:00,
2013-09-30 14:59:00,56.5,51.1,30.16,NNE,30,3.0,4.0,82,0.01,,,0.39,meteohub,2013-09-30 21:59:00,
2013-09-30 15:04:00,56.3,50.9,30.17,West,273,0.0,4.0,82,0.00,,,0.39,meteohub,2013-09-30 22:04:00,
2013-09-30 15:09:00,56.5,50.7,30.17,NNE,24,2.0,3.0,81,0.00,,,0.39,meteohub,2013-09-30 22:09:00,
2013-09-30 15:14:00,56.5,50.7,30.17,SW,221,2.0,3.0,81,0.00,,,0.39,meteohub,2013-09-30 22:14:00,
2013-09-30 15:19:00,56.5,50.4,30.18,WNW,292,2.0,3.0,80,0.00,,,0.39,meteohub,2013-09-30 22:19:00,
2013-09-30 15:24:00,55.8,50.4,30.18,SSW,206,3.0,10.0,82,0.00,,,0.39,meteohub,2013-09-30 22:24:00,
2013-09-30 15:29:00,55.0,50.4,30.18,West,275,4.0,10.0,84,0.01,,,0.40,meteohub,2013-09-30 22:29:00,
2013-09-30 15:34:00,54.7,50.0,30.19,West,259,2.0,10.0,84,0.01,,,0.40,meteohub,2013-09-30 22:34:00,
2013-09-30 15:39:00,54.3,50.2,30.19,WSW,242,0.0,10.0,86,0.02,,,0.41,meteohub,2013-09-30 22:39:00,
2013-09-30 15:45:00,54.0,50.2,30.19,WSW,239,2.0,10.0,87,0.02,,,0.41,meteohub,2013-09-30 22:45:00,
2013-09-30 15:50:00,53.6,49.8,30.20,WSW,242,4.0,9.0,87,0.03,,,0.42,meteohub,2013-09-30 22:50:00,
2013-09-30 15:55:00,53.4,50.0,30.20,SW,228,1.0,9.0,88,0.05,,,0.44,meteohub,2013-09-30 22:55:00,
2013-09-30 16:00:00,53.1,49.6,30.20,SW,225,1.0,8.0,88,0.06,,,0.46,meteohub,2013-09-30 23:00:00,
2013-09-30 16:05:00,52.9,49.5,30.20,West,260,2.0,8.0,88,0.07,,,0.47,meteohub,2013-09-30 23:05:00,
2013-09-30 16:10:00,52.5,48.7,30.20,NW,306,2.0,10.0,87,0.08,,,0.47,meteohub,2013-09-30 23:10:00,
2013-09-30 16:15:00,52.3,48.6,30.19,WNW,289,4.0,10.0,87,0.08,,,0.48,meteohub,2013-09-30 23:15:00,
2013-09-30 16:20:00,52.5,49.1,30.20,SW,229,3.0,10.0,88,0.09,,,0.48,meteohub,2013-09-30 23:20:00,
2013-09-30 16:25:00,53.1,49.3,30.20,West,265,2.0,10.0,87,0.08,,,0.48,meteohub,2013-09-30 23:25:00,
2013-09-30 16:30:00,53.4,50.0,30.20,WSW,242,1.0,10.0,88,0.08,,,0.48,meteohub,2013-09-30 23:30:00,
2013-09-30 16:35:00,53.8,49.6,30.20,WSW,257,2.0,7.0,86,0.07,,,0.48,meteohub,2013-09-30 23:35:00,
2013-09-30 16:41:00,54.3,50.5,30.21,SW,233,1.0,6.0,87,0.06,,,0.48,meteohub,2013-09-30 23:41:00,
2013-09-30 16:46:00,54.5,49.1,30.21,WNW,287,5.0,7.0,82,0.06,,,0.48,meteohub,2013-09-30 23:46:00,
2013-09-30 16:51:00,54.5,49.5,30.21,South,180,6.0,9.0,83,0.04,,,0.48,meteohub,2013-09-30 23:51:00,
2013-09-30 16:56:00,54.3,48.9,30.21,SW,229,3.0,14.0,82,0.03,,,0.48,meteohub,2013-09-30 23:56:00,
2013-09-30 17:01:00,54.3,48.9,30.20,South,189,2.0,14.0,82,0.02,,,0.48,meteohub,2013-10-01 00:01:00,
2013-09-30 17:06:00,54.1,49.5,30.20,SW,226,4.0,14.0,84,0.01,,,0.48,meteohub,2013-10-01 00:06:00,
2013-09-30 17:11:00,54.3,49.3,30.20,WSW,238,3.0,9.0,83,0.00,,,0.48,meteohub,2013-10-01 00:11:00,
2013-09-30 17:16:00,54.3,49.3,30.20,SSW,195,2.0,12.0,83,0.00,,,0.48,meteohub,2013-10-01 00:16:00,
2013-09-30 17:22:00,54.1,49.1,30.20,SSW,200,2.0,12.0,83,0.00,,,0.48,meteohub,2013-10-01 00:22:00,
2013-09-30 17:27:00,54.0,48.9,30.20,WSW,238,6.0,10.0,83,0.00,,,0.48,meteohub,2013-10-01 00:27:00,
2013-09-30 17:32:00,54.0,48.6,30.21,SW,229,3.0,10.0,82,0.00,,,0.48,meteohub,2013-10-01 00:32:00,
2013-09-30 17:37:00,54.0,48.9,30.21,NNW,331,1.0,10.0,83,0.00,,,0.48,meteohub,2013-10-01 00:37:00,
2013-09-30 17:42:00,54.0,49.3,30.21,SSE,150,0.0,10.0,84,0.00,,,0.48,meteohub,2013-10-01 00:42:00,
2013-09-30 17:47:00,54.0,49.3,30.21,WSW,256,3.0,9.0,84,0.00,,,0.48,meteohub,2013-10-01 00:47:00,
2013-09-30 17:52:00,54.0,48.9,30.22,SW,217,1.0,8.0,83,0.00,,,0.48,meteohub,2013-10-01 00:52:00,
2013-09-30 17:57:00,53.8,49.1,30.22,WSW,242,2.0,11.0,84,0.00,,,0.48,meteohub,2013-10-01 00:57:00,
2013-09-30 18:02:00,53.4,49.1,30.22,WSW,242,1.0,11.0,85,0.00,,,0.48,meteohub,2013-10-01 01:02:00,
2013-09-30 18:07:00,53.2,48.9,30.22,SW,222,2.0,8.0,85,0.01,,,0.49,meteohub,2013-10-01 01:07:00,
2013-09-30 18:12:00,52.9,48.7,30.22,WSW,253,1.0,8.0,86,0.01,,,0.49,meteohub,2013-10-01 01:12:00,
2013-09-30 18:17:00,52.7,48.9,30.22,SSE,167,1.0,7.0,87,0.01,,,0.49,meteohub,2013-10-01 01:17:00,
2013-09-30 18:22:00,52.5,48.7,30.22,SSW,209,1.0,7.0,87,0.01,,,0.49,meteohub,2013-10-01 01:22:00,
2013-09-30 18:27:00,52.5,48.7,30.22,SSE,156,0.0,4.0,87,0.01,,,0.49,meteohub,2013-10-01 01:27:00,
2013-09-30 18:32:00,52.2,47.8,30.22,SSW,207,0.0,2.0,85,0.01,,,0.49,meteohub,2013-10-01 01:32:00,
2013-09-30 18:37:00,51.6,46.2,30.22,SSW,205,0.0,5.0,82,0.01,,,0.49,meteohub,2013-10-01 01:37:00,
2013-09-30 18:42:00,51.3,46.6,30.22,WSW,244,1.0,5.0,84,0.01,,,0.49,meteohub,2013-10-01 01:42:00,
2013-09-30 18:47:00,50.7,46.0,30.22,SE,134,2.0,6.0,84,0.01,,,0.49,meteohub,2013-10-01 01:47:00,
2013-09-30 18:52:00,50.4,46.0,30.22,SSE,161,2.0,6.0,85,0.01,,,0.49,meteohub,2013-10-01 01:52:00,
2013-09-30 18:57:00,50.0,46.0,30.23,SW,234,2.0,4.0,86,0.01,,,0.49,meteohub,2013-10-01 01:57:00,
2013-09-30 19:02:00,49.8,45.9,30.23,WSW,246,3.0,4.0,86,0.01,,,0.49,meteohub,2013-10-01 02:02:00,
2013-09-30 19:07:00,50.2,45.9,30.23,SW,228,2.0,7.0,85,0.00,,,0.49,meteohub,2013-10-01 02:07:00,
2013-09-30 19:12:00,50.4,45.3,30.23,SSE,157,5.0,7.0,83,0.00,,,0.49,meteohub,2013-10-01 02:12:00,
2013-09-30 19:17:00,50.7,45.7,30.23,SSE,166,1.0,7.0,83,0.00,,,0.49,meteohub,2013-10-01 02:17:00,
2013-09-30 19:22:00,50.7,46.0,30.24,SSW,204,1.0,7.0,84,0.00,,,0.49,meteohub,2013-10-01 02:22:00,
2013-09-30 19:27:00,50.5,46.2,30.24,SW,236,2.0,7.0,85,0.00,,,0.49,meteohub,2013-10-01 02:27:00,
2013-09-30 19:33:00,50.7,46.9,30.24,SW,222,2.0,5.0,87,0.00,,,0.49,meteohub,2013-10-01 02:33:00,
2013-09-30 19:38:00,50.7,46.9,30.24,SW,214,1.0,4.0,87,0.00,,,0.49,meteohub,2013-10-01 02:38:00,
2013-09-30 19:43:00,50.5,47.1,30.24,SW,218,0.0,3.0,88,0.00,,,0.49,meteohub,2013-10-01 02:43:00,
2013-09-30 19:48:00,50.5,47.1,30.24,West,275,1.0,3.0,88,0.01,,,0.50,meteohub,2013-10-01 02:48:00,
2013-09-30 19:53:00,50.5,47.1,30.24,WNW,295,1.0,4.0,88,0.01,,,0.50,meteohub,2013-10-01 02:53:00,
2013-09-30 19:58:00,50.5,47.1,30.24,SW,226,1.0,4.0,88,0.01,,,0.50,meteohub,2013-10-01 02:58:00,
2013-09-30 20:04:00,50.5,47.1,30.24,WNW,283,3.0,6.0,88,0.01,,,0.50,meteohub,2013-10-01 03:04:00,
2013-09-30 20:09:00,50.4,46.9,30.24,West,265,4.0,6.0,88,0.01,,,0.50,meteohub,2013-10-01 03:09:00,
2013-09-30 20:14:00,50.2,46.8,30.24,SW,229,3.0,8.0,88,0.01,,,0.50,meteohub,2013-10-01 03:14:00,
2013-09-30 20:19:00,50.2,46.8,30.24,West,277,5.0,8.0,88,0.01,,,0.50,meteohub,2013-10-01 03:19:00,
2013-09-30 20:24:00,50.2,46.8,30.24,SW,233,5.0,8.0,88,0.01,,,0.50,meteohub,2013-10-01 03:24:00,
2013-09-30 20:29:00,50.2,46.8,30.24,WSW,240,3.0,8.0,88,0.01,,,0.50,meteohub,2013-10-01 03:29:00,
2013-09-30 20:34:00,50.2,46.8,30.25,West,271,1.0,8.0,88,0.01,,,0.50,meteohub,2013-10-01 03:34:00,
2013-09-30 20:39:00,50.0,46.6,30.25,West,262,1.0,6.0,88,0.01,,,0.50,meteohub,2013-10-01 03:39:00,
2013-09-30 20:45:00,50.2,46.8,30.25,WNW,286,4.0,6.0,88,0.00,,,0.50,meteohub,2013-10-01 03:45:00,
2013-09-30 20:50:00,50.4,46.9,30.25,WSW,245,4.0,6.0,88,0.00,,,0.50,meteohub,2013-10-01 03:50:00,
2013-09-30 20:55:00,50.5,47.1,30.25,WSW,250,7.0,7.0,88,0.00,,,0.51,meteohub,2013-10-01 03:55:00,
2013-09-30 21:00:00,50.5,47.1,30.25,WSW,237,5.0,9.0,88,0.01,,,0.51,meteohub,2013-10-01 04:00:00,
2013-09-30 21:01:00,50.5,47.1,30.25,West,271,5.0,9.0,88,0.01,,,0.51,meteohub,2013-10-01 04:01:00,
2013-09-30 21:02:00,50.5,47.1,30.25,WSW,239,4.0,9.0,88,0.01,,,0.51,meteohub,2013-10-01 04:02:00,
2013-09-30 21:03:00,50.5,47.1,30.25,SW,226,4.0,9.0,88,0.01,,,0.51,meteohub,2013-10-01 04:03:00,
2013-09-30 21:05:00,50.4,46.9,30.25,West,276,2.0,9.0,88,0.01,,,0.51,meteohub,2013-10-01 04:05:00,
2013-09-30 21:07:00,50.4,46.9,30.25,WSW,251,10.0,10.0,88,0.01,,,0.51,meteohub,2013-10-01 04:07:00,
2013-09-30 21:12:00,50.4,46.9,30.25,West,273,4.0,13.0,88,0.02,,,0.52,meteohub,2013-10-01 04:12:00,
2013-09-30 21:17:00,50.4,46.9,30.25,WSW,248,9.0,13.0,88,0.02,,,0.52,meteohub,2013-10-01 04:17:00,
2013-09-30 21:22:00,50.4,46.9,30.25,West,259,6.0,13.0,88,0.02,,,0.52,meteohub,2013-10-01 04:22:00,
2013-09-30 21:27:00,50.2,46.8,30.25,SSW,205,6.0,11.0,88,0.02,,,0.52,meteohub,2013-10-01 04:27:00,
2013-09-30 21:32:00,50.4,46.9,30.25,SW,228,2.0,11.0,88,0.02,,,0.52,meteohub,2013-10-01 04:32:00,
2013-09-30 21:37:00,50.4,46.9,30.25,WSW,253,1.0,11.0,88,0.02,,,0.52,meteohub,2013-10-01 04:37:00,
2013-09-30 21:42:00,50.4,46.9,30.25,SW,236,1.0,11.0,88,0.02,,,0.52,meteohub,2013-10-01 04:42:00,
2013-09-30 21:47:00,50.4,46.6,30.25,SSE,168,2.0,9.0,87,0.02,,,0.52,meteohub,2013-10-01 04:47:00,
2013-09-30 21:52:00,50.4,46.6,30.25,SSW,211,2.0,9.0,87,0.01,,,0.52,meteohub,2013-10-01 04:52:00,
2013-09-30 21:57:00,50.4,46.6,30.25,SE,130,1.0,5.0,87,0.01,,,0.52,meteohub,2013-10-01 04:57:00,
2013-09-30 22:02:00,49.8,46.4,30.25,ESE,105,0.0,5.0,88,0.01,,,0.52,meteohub,2013-10-01 05:02:00,
2013-09-30 22:07:00,49.3,45.9,30.26,SE,144,0.0,5.0,88,0.01,,,0.52,meteohub,2013-10-01 05:07:00,
2013-09-30 22:12:00,48.9,45.5,30.26,SW,226,2.0,3.0,88,0.00,,,0.52,meteohub,2013-10-01 05:12:00,
2013-09-30 22:17:00,49.1,45.7,30.26,SW,234,3.0,4.0,88,0.00,,,0.52,meteohub,2013-10-01 05:17:00,
2013-09-30 22:22:00,49.5,46.0,30.27,SW,226,0.0,5.0,88,0.00,,,0.52,meteohub,2013-10-01 05:22:00,
2013-09-30 22:27:00,49.8,46.4,30.27,South,182,6.0,6.0,88,0.00,,,0.52,meteohub,2013-10-01 05:27:00,
2013-09-30 22:32:00,50.4,46.9,30.27,WNW,283,12.0,14.0,88,0.01,,,0.53,meteohub,2013-10-01 05:32:00,
2013-09-30 22:37:00,50.4,46.9,30.27,West,271,9.0,14.0,88,0.03,,,0.55,meteohub,2013-10-01 05:37:00,
2013-09-30 22:42:00,50.4,46.6,30.27,SW,218,8.0,14.0,87,0.03,,,0.55,meteohub,2013-10-01 05:42:00,
2013-09-30 22:47:00,50.2,46.4,30.26,West,259,2.0,12.0,87,0.03,,,0.55,meteohub,2013-10-01 05:47:00,
2013-09-30 22:52:00,50.0,46.2,30.26,WSW,244,1.0,10.0,87,0.03,,,0.55,meteohub,2013-10-01 05:52:00,
2013-09-30 22:57:00,50.0,46.2,30.27,West,265,9.0,10.0,87,0.03,,,0.55,meteohub,2013-10-01 05:57:00,
2013-09-30 23:02:00,49.8,46.0,30.27,WSW,255,6.0,12.0,87,0.04,,,0.56,meteohub,2013-10-01 06:02:00,
2013-09-30 23:07:00,49.8,46.0,30.27,West,278,2.0,12.0,87,0.04,,,0.56,meteohub,2013-10-01 06:07:00,
2013-09-30 23:12:00,49.8,46.0,30.27,SW,234,1.0,12.0,87,0.04,,,0.56,meteohub,2013-10-01 06:12:00,
2013-09-30 23:17:00,49.6,45.9,30.27,SW,222,2.0,12.0,87,0.04,,,0.56,meteohub,2013-10-01 06:17:00,
2013-09-30 23:22:00,49.6,45.9,30.27,WSW,253,3.0,11.0,87,0.04,,,0.56,meteohub,2013-10-01 06:22:00,
2013-09-30 23:28:00,49.6,45.9,30.27,WSW,255,3.0,11.0,87,0.03,,,0.56,meteohub,2013-10-01 06:28:00,
2013-09-30 23:33:00,49.6,45.7,30.27,WNW,294,6.0,9.0,86,0.03,,,0.56,meteohub,2013-10-01 06:33:00,
2013-09-30 23:38:00,49.6,45.7,30.26,SW,226,2.0,9.0,86,0.01,,,0.56,meteohub,2013-10-01 06:38:00,
2013-09-30 23:43:00,49.6,45.7,30.27,SW,227,0.0,10.0,86,0.01,,,0.56,meteohub,2013-10-01 06:43:00,
2013-09-30 23:48:00,49.6,45.9,30.27,SW,234,0.0,10.0,87,0.01,,,0.56,meteohub,2013-10-01 06:48:00,
2013-09-30 23:53:00,49.6,45.9,30.27,West,260,0.0,10.0,87,0.01,,,0.56,meteohub,2013-10-01 06:53:00,
2013-09-30 23:58:00,49.6,45.9,30.27,SSW,200,1.0,4.0,87,0.00,,,0.56,meteohub,2013-10-01 06:58:00,